createdAt,value
2022-12-31T00:01:03.040Z,99.90
2022-12-31T00:03:31.139Z,99.90
2022-12-31T00:06:00.905Z,99.90
2022-12-31T00:08:29.034Z,99.90
2022-12-31T00:10:57.121Z,99.90
2022-12-31T00:13:25.256Z,99.90
2022-12-31T00:15:53.312Z,99.90
2022-12-31T00:18:21.359Z,99.90
2022-12-31T00:20:49.542Z,99.90
2022-12-31T00:23:18.987Z,99.90
2022-12-31T00:25:47.202Z,99.90
2022-12-31T00:28:15.257Z,99.90
2022-12-31T00:30:43.320Z,99.90
2022-12-31T00:33:11.391Z,99.90
2022-12-31T00:35:39.604Z,99.90
2022-12-31T00:38:07.881Z,99.90
2022-12-31T00:40:37.421Z,99.90
2022-12-31T00:43:05.486Z,99.90
2022-12-31T00:45:33.558Z,99.90
2022-12-31T00:48:05.287Z,99.90
2022-12-31T00:50:33.285Z,99.90
2022-12-31T00:53:01.327Z,99.90
2022-12-31T00:55:33.311Z,99.90
2022-12-31T00:58:02.792Z,99.90
2022-12-31T01:00:31.087Z,99.90
2022-12-31T01:02:59.284Z,99.90
2022-12-31T01:05:27.363Z,99.90
2022-12-31T01:07:55.433Z,99.90
2022-12-31T01:10:37.562Z,99.90
2022-12-31T01:13:07.005Z,99.90
2022-12-31T01:15:36.565Z,99.90
2022-12-31T01:18:04.903Z,99.90
2022-12-31T01:20:37.136Z,99.90
2022-12-31T01:23:05.687Z,99.90
2022-12-31T01:25:37.527Z,99.90
2022-12-31T01:28:07.961Z,99.90
2022-12-31T01:30:39.813Z,99.90
2022-12-31T01:33:07.925Z,99.90
2022-12-31T01:35:37.097Z,99.90
2022-12-31T01:38:05.201Z,99.90
2022-12-31T01:40:38.126Z,99.90
2022-12-31T01:43:17.427Z,99.90
2022-12-31T01:45:48.890Z,99.90
2022-12-31T01:48:26.383Z,99.90
2022-12-31T01:50:56.128Z,99.90
2022-12-31T01:53:24.356Z,99.90
2022-12-31T01:55:57.841Z,99.90
2022-12-31T01:58:36.039Z,99.90
2022-12-31T02:01:05.574Z,99.90
2022-12-31T02:03:33.680Z,99.90
2022-12-31T02:06:10.069Z,99.90
2022-12-31T02:08:42.374Z,99.90
2022-12-31T02:11:32.936Z,99.90
2022-12-31T02:14:07.061Z,99.90
2022-12-31T02:16:47.022Z,99.90
2022-12-31T02:19:57.245Z,99.90
2022-12-31T02:22:53.032Z,99.90
2022-12-31T02:25:53.811Z,99.90
2022-12-31T02:28:49.840Z,99.90
2022-12-31T02:31:32.678Z,99.90
2022-12-31T02:34:09.520Z,99.90
2022-12-31T02:36:44.068Z,99.90
2022-12-31T02:39:13.475Z,99.90
2022-12-31T02:41:53.865Z,99.90
2022-12-31T02:44:27.888Z,99.90
2022-12-31T02:47:14.545Z,99.90
2022-12-31T02:49:59.146Z,99.90
2022-12-31T02:52:47.877Z,99.90
2022-12-31T02:55:26.683Z,99.90
2022-12-31T02:58:09.553Z,99.90
2022-12-31T03:01:04.115Z,99.90
2022-12-31T03:03:34.246Z,99.90
2022-12-31T03:06:05.440Z,99.90
2022-12-31T03:08:53.543Z,99.90
2022-12-31T03:11:35.576Z,99.90
2022-12-31T03:14:03.614Z,99.90
2022-12-31T03:16:31.682Z,99.90
2022-12-31T03:19:19.008Z,99.90
2022-12-31T03:22:04.515Z,99.90
2022-12-31T03:24:49.884Z,99.90
2022-12-31T03:27:18.015Z,99.90
2022-12-31T03:29:46.154Z,99.90
2022-12-31T03:32:14.228Z,99.90
2022-12-31T03:34:43.638Z,99.90
2022-12-31T03:37:11.623Z,99.90
2022-12-31T03:39:39.819Z,99.90
2022-12-31T03:42:07.896Z,99.90
2022-12-31T03:44:35.934Z,99.90
2022-12-31T03:47:04.014Z,99.90
2022-12-31T03:49:32.037Z,99.90
2022-12-31T03:52:03.008Z,99.90
2022-12-31T03:54:31.302Z,99.90
2022-12-31T03:57:00.416Z,99.90
2022-12-31T03:59:28.571Z,99.90
2022-12-31T04:01:56.697Z,99.90
2022-12-31T04:04:24.764Z,99.90
2022-12-31T04:06:52.833Z,99.90
2022-12-31T04:09:22.577Z,99.90
2022-12-31T04:11:50.776Z,99.90
2022-12-31T04:14:19.835Z,99.90
2022-12-31T04:16:47.935Z,99.90
2022-12-31T04:19:16.025Z,99.90
2022-12-31T04:21:44.122Z,99.90
2022-12-31T04:24:12.892Z,99.90
2022-12-31T04:26:43.747Z,99.90
2022-12-31T04:29:12.185Z,99.90
2022-12-31T04:31:40.233Z,99.90
2022-12-31T04:34:08.455Z,99.90
2022-12-31T04:36:36.797Z,99.90
2022-12-31T04:39:05.141Z,99.90
2022-12-31T04:41:33.369Z,99.90
2022-12-31T04:44:03.241Z,99.90
2022-12-31T04:46:34.162Z,99.90
2022-12-31T04:49:03.027Z,99.90
2022-12-31T04:51:32.809Z,99.90
2022-12-31T04:54:01.129Z,99.90
2022-12-31T04:56:30.363Z,99.90
2022-12-31T04:58:58.599Z,99.90
2022-12-31T05:01:28.483Z,99.90
2022-12-31T05:03:56.701Z,99.90
2022-12-31T05:06:25.102Z,99.90
2022-12-31T05:08:53.246Z,99.90
2022-12-31T05:11:21.680Z,99.90
2022-12-31T05:13:49.911Z,99.90
2022-12-31T05:16:18.128Z,99.90
2022-12-31T05:18:47.968Z,99.90
2022-12-31T05:21:20.810Z,99.90
2022-12-31T05:23:49.691Z,99.90
2022-12-31T05:26:18.569Z,99.90
2022-12-31T05:28:46.733Z,99.90
2022-12-31T05:31:15.242Z,99.90
2022-12-31T05:33:43.655Z,99.90
2022-12-31T05:36:13.231Z,99.90
2022-12-31T05:38:41.485Z,99.90
2022-12-31T05:41:10.101Z,99.90
2022-12-31T05:43:38.532Z,99.90
2022-12-31T05:46:07.045Z,99.90
2022-12-31T05:48:36.052Z,99.90
2022-12-31T05:51:09.006Z,99.90
2022-12-31T05:53:40.413Z,99.90
2022-12-31T05:56:09.047Z,99.90
2022-12-31T05:58:38.618Z,99.90
2022-12-31T06:01:07.128Z,99.90
2022-12-31T06:03:35.797Z,99.90
2022-12-31T06:06:04.165Z,99.90
2022-12-31T06:08:32.464Z,99.90
2022-12-31T06:11:02.298Z,99.90
2022-12-31T06:13:30.544Z,99.90
2022-12-31T06:15:58.789Z,99.90
2022-12-31T06:18:27.221Z,99.90
2022-12-31T06:20:55.411Z,99.90
2022-12-31T06:23:23.572Z,99.90
2022-12-31T06:25:52.027Z,99.90
2022-12-31T06:28:21.626Z,99.90
2022-12-31T06:30:50.316Z,99.90
2022-12-31T06:33:18.787Z,99.90
2022-12-31T06:35:46.934Z,99.90
2022-12-31T06:38:14.984Z,99.90
2022-12-31T06:40:43.120Z,99.90
2022-12-31T06:43:11.198Z,99.90
2022-12-31T06:45:42.208Z,99.90
2022-12-31T06:48:10.358Z,99.90
2022-12-31T06:50:40.353Z,99.90
2022-12-31T06:53:09.390Z,99.90
2022-12-31T06:55:38.804Z,99.90
2022-12-31T06:58:07.739Z,99.90
2022-12-31T07:00:36.443Z,99.90
2022-12-31T07:03:25.711Z,99.90
2022-12-31T07:06:03.068Z,99.90
2022-12-31T07:08:49.231Z,99.90
2022-12-31T07:11:24.173Z,99.90
2022-12-31T07:14:04.568Z,99.90
2022-12-31T07:16:50.469Z,99.90
2022-12-31T07:19:39.257Z,99.90
2022-12-31T07:22:15.640Z,99.90
2022-12-31T07:24:45.579Z,99.90
2022-12-31T07:27:37.327Z,99.90
2022-12-31T07:30:13.447Z,99.90
2022-12-31T07:33:10.172Z,99.90
2022-12-31T07:35:50.143Z,99.90
2022-12-31T07:38:32.677Z,99.90
2022-12-31T07:41:15.214Z,99.90
2022-12-31T07:44:01.368Z,99.90
2022-12-31T07:46:37.147Z,99.90
2022-12-31T07:49:07.227Z,99.90
2022-12-31T07:51:37.697Z,99.90
2022-12-31T07:54:11.863Z,99.90
2022-12-31T07:56:42.697Z,99.90
2022-12-31T07:59:36.102Z,99.90
2022-12-31T08:02:19.514Z,99.90
2022-12-31T08:05:01.385Z,99.90
2022-12-31T08:07:44.684Z,99.90
2022-12-31T08:10:24.127Z,99.90
2022-12-31T08:12:56.977Z,99.90
2022-12-31T08:15:30.372Z,99.90
2022-12-31T08:17:59.607Z,99.90
2022-12-31T08:20:30.580Z,99.90
2022-12-31T08:23:22.969Z,99.90
2022-12-31T08:26:23.976Z,99.90
2022-12-31T08:29:09.427Z,99.90
2022-12-31T08:31:50.059Z,99.90
2022-12-31T08:34:31.209Z,97.20
2022-12-31T08:37:09.854Z,95.00
2022-12-31T08:39:59.996Z,94.90
2022-12-31T08:42:38.011Z,94.30
2022-12-31T08:45:18.273Z,93.80
2022-12-31T08:48:00.214Z,93.10
2022-12-31T08:50:30.157Z,93.70
2022-12-31T08:52:59.251Z,93.60
2022-12-31T08:55:30.468Z,90.90
2022-12-31T08:58:16.420Z,90.00
2022-12-31T09:00:44.664Z,88.60
2022-12-31T09:03:43.650Z,89.10
2022-12-31T09:06:20.979Z,90.00
2022-12-31T09:08:58.960Z,91.70
2022-12-31T09:11:40.116Z,92.80
2022-12-31T09:14:31.578Z,91.60
2022-12-31T09:17:11.579Z,92.00
2022-12-31T09:19:39.851Z,90.80
2022-12-31T09:22:08.639Z,88.50
2022-12-31T09:24:37.710Z,89.30
2022-12-31T09:27:16.530Z,81.30
2022-12-31T09:29:58.468Z,77.40
2022-12-31T09:32:41.582Z,70.00
2022-12-31T09:35:23.140Z,65.20
2022-12-31T09:37:57.399Z,64.50
2022-12-31T09:40:49.269Z,55.60
2022-12-31T09:44:19.295Z,55.90
2022-12-31T09:47:26.102Z,60.10
2022-12-31T09:50:39.022Z,58.20
2022-12-31T09:53:39.197Z,56.80
2022-12-31T09:56:21.760Z,58.90
2022-12-31T09:59:03.889Z,51.00
2022-12-31T10:01:49.632Z,53.10
2022-12-31T10:05:08.974Z,49.90
2022-12-31T10:07:53.865Z,46.80
2022-12-31T10:10:31.302Z,44.30
2022-12-31T10:13:44.068Z,45.40
2022-12-31T10:16:44.343Z,44.00
2022-12-31T10:19:52.909Z,46.60
2022-12-31T10:22:46.779Z,43.70
2022-12-31T10:25:45.242Z,43.80
2022-12-31T10:28:32.082Z,42.50
2022-12-31T10:31:15.840Z,40.80
2022-12-31T10:33:51.882Z,40.00
2022-12-31T10:36:32.023Z,37.80
2022-12-31T10:39:20.565Z,39.40
2022-12-31T10:42:20.685Z,39.30
2022-12-31T10:45:39.468Z,39.80
2022-12-31T10:48:49.852Z,39.10
2022-12-31T10:52:08.666Z,39.30
2022-12-31T10:55:06.586Z,42.10
2022-12-31T10:58:15.206Z,41.80
2022-12-31T11:00:58.659Z,42.90
2022-12-31T11:04:29.565Z,42.20
2022-12-31T11:07:54.613Z,42.20
2022-12-31T11:10:56.689Z,42.10
2022-12-31T11:13:56.118Z,43.60
2022-12-31T11:16:54.496Z,44.50
2022-12-31T11:19:40.753Z,41.00
2022-12-31T11:22:36.732Z,39.90
2022-12-31T11:25:39.338Z,36.90
2022-12-31T11:28:38.575Z,35.20
2022-12-31T11:31:24.467Z,35.30
2022-12-31T11:34:15.211Z,36.30
2022-12-31T11:37:06.828Z,35.70
2022-12-31T11:39:51.007Z,35.10
2022-12-31T11:42:30.342Z,35.70
2022-12-31T11:45:13.717Z,35.20
2022-12-31T11:51:09.334Z,35.40
2022-12-31T11:54:14.494Z,34.80
2022-12-31T11:57:06.407Z,35.30
2022-12-31T11:59:34.672Z,35.50
2022-12-31T12:02:26.931Z,35.00
2022-12-31T12:05:06.605Z,35.90
2022-12-31T12:07:38.447Z,37.10
2022-12-31T12:10:24.171Z,38.90
2022-12-31T12:12:56.968Z,40.20
2022-12-31T12:15:30.812Z,38.80
2022-12-31T12:18:05.906Z,38.40
2022-12-31T12:20:38.972Z,39.10
2022-12-31T12:23:18.253Z,38.90
2022-12-31T12:25:46.377Z,40.20
2022-12-31T12:28:25.717Z,41.40
2022-12-31T12:31:02.108Z,41.40
2022-12-31T12:33:43.920Z,42.30
2022-12-31T12:36:16.027Z,41.70
2022-12-31T12:38:44.371Z,43.60
2022-12-31T12:41:21.944Z,44.00
2022-12-31T12:44:02.308Z,43.20
2022-12-31T12:46:35.240Z,42.10
2022-12-31T12:49:05.225Z,43.70
2022-12-31T12:51:57.313Z,42.80
2022-12-31T12:54:44.644Z,43.40
2022-12-31T12:57:20.887Z,41.90
2022-12-31T13:00:07.574Z,42.70
2022-12-31T13:03:21.537Z,43.10
2022-12-31T13:06:22.806Z,42.20
2022-12-31T13:09:23.145Z,41.70
2022-12-31T13:12:07.691Z,43.60
2022-12-31T13:14:46.720Z,45.00
2022-12-31T13:17:53.311Z,46.30
2022-12-31T13:20:33.936Z,46.20
2022-12-31T13:23:14.275Z,49.10
2022-12-31T13:26:05.236Z,51.50
2022-12-31T13:28:36.601Z,52.20
2022-12-31T13:31:13.060Z,49.50
2022-12-31T13:33:48.255Z,52.20
2022-12-31T13:36:21.794Z,53.30
2022-12-31T13:38:53.172Z,54.10
2022-12-31T13:41:30.879Z,52.70
2022-12-31T13:44:12.880Z,53.50
2022-12-31T13:46:47.811Z,54.80
2022-12-31T13:49:26.112Z,58.20
2022-12-31T13:52:02.592Z,55.40
2022-12-31T13:54:43.586Z,57.90
2022-12-31T13:57:24.479Z,57.50
2022-12-31T14:00:01.623Z,59.20
2022-12-31T14:02:42.652Z,58.80
2022-12-31T14:05:23.808Z,56.90
2022-12-31T14:07:56.237Z,57.90
2022-12-31T14:10:42.555Z,58.10
2022-12-31T14:13:35.397Z,57.70
2022-12-31T14:16:20.481Z,58.80
2022-12-31T14:19:00.757Z,61.80
2022-12-31T14:21:40.056Z,61.80
2022-12-31T14:24:15.546Z,60.60
2022-12-31T14:26:49.960Z,62.40
2022-12-31T14:29:32.946Z,65.60
2022-12-31T14:32:33.657Z,65.70
2022-12-31T14:35:22.243Z,67.00
2022-12-31T14:38:04.108Z,66.30
2022-12-31T14:40:51.147Z,66.20
2022-12-31T14:43:33.374Z,67.10
2022-12-31T14:46:16.278Z,67.80
2022-12-31T14:49:00.469Z,68.20
2022-12-31T14:51:30.353Z,68.80
2022-12-31T14:54:00.408Z,69.20
2022-12-31T14:56:41.280Z,72.10
2022-12-31T14:59:27.826Z,72.90
2022-12-31T15:01:58.076Z,75.80
2022-12-31T15:04:37.235Z,74.80
2022-12-31T15:07:17.657Z,74.70
2022-12-31T15:10:04.003Z,76.10
2022-12-31T15:13:01.073Z,77.10
2022-12-31T15:16:09.677Z,80.50
2022-12-31T15:18:51.673Z,82.60
2022-12-31T15:21:52.200Z,84.80
2022-12-31T15:24:23.855Z,85.60
2022-12-31T15:26:56.993Z,89.50
2022-12-31T15:29:31.228Z,89.70
2022-12-31T15:32:03.362Z,91.10
2022-12-31T15:34:34.846Z,86.30
2022-12-31T15:37:06.628Z,80.20
2022-12-31T15:39:42.433Z,80.50
2022-12-31T15:42:49.456Z,85.50
2022-12-31T15:45:26.212Z,86.30
2022-12-31T15:48:00.114Z,79.20
2022-12-31T15:50:31.055Z,79.30
2022-12-31T15:53:03.492Z,83.90
2022-12-31T15:55:41.708Z,85.70
2022-12-31T15:58:21.403Z,85.60
2022-12-31T16:01:04.485Z,85.00
2022-12-31T16:03:34.451Z,88.60
2022-12-31T16:06:05.412Z,88.30
2022-12-31T16:08:36.160Z,88.60
2022-12-31T16:11:07.145Z,88.90
2022-12-31T16:13:42.319Z,91.20
2022-12-31T16:16:23.794Z,91.80
2022-12-31T16:18:53.135Z,92.00
2022-12-31T16:21:27.979Z,93.50
2022-12-31T16:23:58.605Z,93.90
2022-12-31T16:26:35.260Z,93.60
2022-12-31T16:29:05.635Z,93.90
2022-12-31T16:31:34.088Z,93.30
2022-12-31T16:34:14.857Z,92.40
2022-12-31T16:36:43.581Z,92.20
2022-12-31T16:39:26.744Z,92.30
2022-12-31T16:42:17.676Z,90.50
2022-12-31T16:44:47.978Z,90.10
2022-12-31T16:47:22.909Z,91.20
2022-12-31T16:50:03.331Z,89.50
2022-12-31T16:52:37.758Z,86.60
2022-12-31T16:55:10.535Z,83.80
2022-12-31T16:57:39.569Z,83.10
2022-12-31T17:00:18.066Z,86.30
2022-12-31T17:02:53.855Z,87.40
2022-12-31T17:05:25.356Z,85.30
2022-12-31T17:07:53.547Z,82.20
2022-12-31T17:10:25.361Z,82.20
2022-12-31T17:15:47.382Z,75.20
2022-12-31T17:18:21.179Z,71.30
2022-12-31T17:20:52.163Z,69.60
2022-12-31T17:23:27.595Z,69.40
2022-12-31T17:26:01.855Z,69.10
2022-12-31T17:28:45.807Z,67.30
2022-12-31T17:31:59.662Z,67.80
2022-12-31T17:34:33.727Z,65.50
2022-12-31T17:37:18.248Z,65.70
2022-12-31T17:39:50.332Z,62.40
2022-12-31T17:42:32.313Z,61.70
2022-12-31T17:45:03.164Z,61.10
2022-12-31T17:47:39.219Z,57.80
2022-12-31T17:50:19.940Z,58.20
2022-12-31T17:52:48.865Z,56.70
2022-12-31T17:55:17.410Z,55.00
2022-12-31T17:57:52.256Z,54.70
2022-12-31T18:00:24.154Z,53.80
2022-12-31T18:02:54.045Z,52.60
2022-12-31T18:05:24.685Z,52.50
2022-12-31T18:07:54.041Z,52.30
2022-12-31T18:10:25.148Z,53.20
2022-12-31T18:12:53.908Z,54.70
2022-12-31T18:15:25.301Z,56.80
2022-12-31T18:17:55.081Z,58.70
2022-12-31T18:20:23.980Z,57.70
2022-12-31T18:22:53.431Z,57.30
2022-12-31T18:25:24.483Z,57.30
2022-12-31T18:27:53.413Z,57.10
2022-12-31T18:30:23.501Z,57.40
2022-12-31T18:32:51.836Z,56.10
2022-12-31T18:38:15.893Z,54.50
2022-12-31T18:40:49.764Z,55.20
2022-12-31T18:43:20.025Z,55.90
2022-12-31T18:45:49.424Z,56.00
2022-12-31T18:48:18.667Z,56.30
2022-12-31T18:50:49.630Z,55.30
2022-12-31T18:53:21.031Z,54.90
2022-12-31T18:55:51.946Z,55.40
2022-12-31T18:58:21.024Z,55.30
2022-12-31T19:00:50.603Z,55.20
2022-12-31T19:03:23.774Z,54.80
2022-12-31T19:05:53.690Z,55.00
2022-12-31T19:08:24.156Z,54.10
2022-12-31T19:10:53.757Z,52.50
2022-12-31T19:13:23.272Z,52.20
2022-12-31T19:15:55.564Z,53.20
2022-12-31T19:18:23.686Z,53.80
2022-12-31T19:20:53.958Z,54.20
2022-12-31T19:23:22.707Z,54.60
2022-12-31T19:25:51.396Z,56.10
2022-12-31T19:28:25.131Z,55.30
2022-12-31T19:30:54.035Z,54.40
2022-12-31T19:33:22.166Z,52.30
2022-12-31T19:35:50.418Z,51.20
2022-12-31T19:38:23.363Z,50.90
2022-12-31T19:40:53.347Z,50.00
2022-12-31T19:43:24.048Z,48.70
2022-12-31T19:45:53.039Z,49.30
2022-12-31T19:48:32.028Z,48.90
2022-12-31T19:51:00.977Z,48.40
2022-12-31T19:53:30.675Z,48.20
2022-12-31T19:55:58.730Z,48.70
2022-12-31T19:58:28.585Z,49.90
2022-12-31T20:01:02.445Z,49.30
2022-12-31T20:03:32.492Z,49.90
2022-12-31T20:06:07.090Z,49.00
2022-12-31T20:08:38.559Z,48.90
2022-12-31T20:11:13.484Z,46.00
2022-12-31T20:13:43.287Z,47.00
2022-12-31T20:16:15.246Z,46.50
2022-12-31T20:18:47.329Z,46.90
2022-12-31T20:21:18.956Z,48.20
2022-12-31T20:23:50.213Z,48.10
2022-12-31T20:26:19.000Z,48.30
2022-12-31T20:28:47.602Z,49.00
2022-12-31T20:31:20.296Z,48.30
2022-12-31T20:33:49.341Z,48.80
2022-12-31T20:36:19.052Z,48.50
2022-12-31T20:38:49.327Z,47.60
2022-12-31T20:41:20.549Z,46.80
2022-12-31T20:43:49.080Z,44.10
2022-12-31T20:46:20.750Z,43.20
2022-12-31T20:48:52.049Z,42.60
2022-12-31T20:51:23.688Z,41.70
2022-12-31T20:53:56.360Z,42.60
2022-12-31T20:56:25.966Z,42.40
2022-12-31T20:58:54.285Z,42.40
2022-12-31T21:01:23.536Z,41.60
2022-12-31T21:04:08.434Z,41.20
2022-12-31T21:06:37.570Z,39.60
2022-12-31T21:09:09.517Z,39.50
2022-12-31T21:11:55.134Z,38.80
2022-12-31T21:14:23.378Z,38.00
2022-12-31T21:16:51.948Z,37.50
2022-12-31T21:19:20.146Z,38.10
2022-12-31T21:21:49.791Z,37.30
2022-12-31T21:24:23.768Z,37.40
2022-12-31T21:26:52.801Z,36.80
2022-12-31T21:29:20.849Z,38.00
2022-12-31T21:31:48.942Z,38.40
2022-12-31T21:34:17.022Z,38.50
2022-12-31T21:36:45.078Z,39.30
2022-12-31T21:39:13.179Z,37.70
2022-12-31T21:41:54.781Z,38.50
2022-12-31T21:44:24.856Z,38.40
2022-12-31T21:47:36.159Z,38.00
2022-12-31T21:50:07.729Z,37.50
2022-12-31T21:52:35.859Z,38.20
2022-12-31T21:55:24.388Z,39.00
2022-12-31T22:01:00.368Z,40.70
2022-12-31T22:03:29.231Z,41.50
2022-12-31T22:06:01.142Z,40.30
2022-12-31T22:08:31.536Z,40.60
2022-12-31T22:11:00.154Z,40.10
2022-12-31T22:13:30.010Z,39.70
2022-12-31T22:16:04.831Z,39.50
2022-12-31T22:18:35.648Z,39.90
2022-12-31T22:21:13.728Z,40.60
2022-12-31T22:23:44.365Z,41.40
2022-12-31T22:26:16.291Z,40.60
2022-12-31T22:28:47.042Z,41.50
2022-12-31T22:31:17.920Z,41.50
2022-12-31T22:33:46.440Z,42.10
2022-12-31T22:36:18.310Z,43.40
2022-12-31T22:38:47.427Z,44.10
2022-12-31T22:41:18.002Z,42.40
2022-12-31T22:43:50.611Z,43.10
2022-12-31T22:46:23.072Z,44.20
2022-12-31T22:48:52.612Z,46.10
2022-12-31T22:51:21.813Z,46.30
2022-12-31T22:53:49.924Z,46.40
2022-12-31T22:56:20.166Z,46.90
2022-12-31T22:58:49.616Z,48.10
2022-12-31T23:01:21.987Z,49.70
2022-12-31T23:03:52.276Z,50.30
2022-12-31T23:06:21.664Z,50.50
2022-12-31T23:09:04.229Z,51.10
2022-12-31T23:11:34.875Z,52.70
2022-12-31T23:14:23.256Z,53.80
2022-12-31T23:17:31.313Z,56.00
2022-12-31T23:20:14.724Z,60.50
2022-12-31T23:23:00.226Z,64.90
2022-12-31T23:25:28.367Z,64.30
2022-12-31T23:27:56.437Z,64.00
2022-12-31T23:30:26.109Z,64.10
2022-12-31T23:32:54.550Z,66.00
2022-12-31T23:35:22.853Z,69.50
2022-12-31T23:37:51.209Z,72.00
2022-12-31T23:40:21.856Z,72.60
2022-12-31T23:42:50.618Z,72.20
2022-12-31T23:45:18.784Z,74.90
2022-12-31T23:47:48.183Z,77.00
2022-12-31T23:50:16.384Z,76.60
2022-12-31T23:52:44.581Z,77.00
2022-12-31T23:55:12.767Z,78.90
2022-12-31T23:57:40.886Z,82.20
